createdAt,value
2022-09-14T00:01:40.452Z,86.12
2022-09-14T00:04:16.797Z,86.10
2022-09-14T00:06:48.777Z,86.08
2022-09-14T00:09:23.274Z,86.09
2022-09-14T00:11:51.725Z,86.12
2022-09-14T00:14:20.465Z,86.16
2022-09-14T00:16:48.857Z,86.21
2022-09-14T00:19:26.358Z,86.29
2022-09-14T00:21:59.538Z,86.34
2022-09-14T00:24:34.388Z,86.37
2022-09-14T00:27:02.947Z,86.49
2022-09-14T00:29:31.083Z,86.60
2022-09-14T00:31:59.275Z,86.73
2022-09-14T00:34:27.647Z,86.84
2022-09-14T00:36:55.721Z,86.97
2022-09-14T00:39:24.630Z,87.09
2022-09-14T00:41:53.433Z,87.16
2022-09-14T00:44:24.730Z,87.21
2022-09-14T00:46:56.810Z,87.26
2022-09-14T00:49:33.105Z,87.22
2022-09-14T00:52:13.463Z,87.18
2022-09-14T00:54:57.410Z,87.16
2022-09-14T00:57:29.134Z,87.12
2022-09-14T00:59:57.564Z,87.10
2022-09-14T01:02:27.937Z,87.06
2022-09-14T01:04:55.798Z,87.01
2022-09-14T01:07:32.262Z,86.95
2022-09-14T01:10:41.019Z,86.92
2022-09-14T01:13:42.356Z,86.93
2022-09-14T01:16:26.461Z,86.88
2022-09-14T01:19:00.619Z,86.81
2022-09-14T01:21:35.851Z,86.75
2022-09-14T01:24:27.353Z,86.73
2022-09-14T01:27:01.172Z,86.73
2022-09-14T01:30:12.878Z,86.73
2022-09-14T01:32:58.330Z,86.70
2022-09-14T01:35:40.536Z,86.66
2022-09-14T01:38:41.129Z,86.64
2022-09-14T01:41:13.170Z,86.62
2022-09-14T01:43:44.681Z,86.63
2022-09-14T01:46:26.071Z,86.60
2022-09-14T01:48:59.701Z,86.60
2022-09-14T01:51:34.731Z,86.65
2022-09-14T01:54:19.758Z,86.73
2022-09-14T01:56:57.284Z,86.79
2022-09-14T01:59:33.867Z,86.86
2022-09-14T02:02:05.993Z,86.92
2022-09-14T02:05:01.453Z,86.96
2022-09-14T02:07:29.918Z,87.02
2022-09-14T02:09:57.617Z,87.08
2022-09-14T02:12:26.037Z,87.13
2022-09-14T02:14:54.456Z,87.14
2022-09-14T02:17:22.545Z,87.14
2022-09-14T02:19:56.416Z,87.12
2022-09-14T02:22:27.221Z,87.07
2022-09-14T02:24:55.832Z,87.01
2022-09-14T02:27:24.342Z,86.96
2022-09-14T02:29:52.702Z,86.91
2022-09-14T02:32:41.419Z,86.86
2022-09-14T02:35:38.457Z,86.80
2022-09-14T02:38:29.609Z,86.75
2022-09-14T02:41:04.849Z,86.67
2022-09-14T02:44:17.074Z,86.62
2022-09-14T02:47:17.652Z,86.61
2022-09-14T02:50:21.226Z,86.59
2022-09-14T02:53:00.749Z,86.54
2022-09-14T02:55:35.145Z,86.50
2022-09-14T02:58:06.838Z,86.54
2022-09-14T03:00:40.372Z,86.58
2022-09-14T03:03:10.659Z,86.60
2022-09-14T03:05:38.486Z,86.57
2022-09-14T03:08:07.094Z,86.55
2022-09-14T03:10:34.955Z,86.54
2022-09-14T03:13:02.809Z,86.51
2022-09-14T03:15:31.260Z,86.47
2022-09-14T03:17:59.364Z,86.44
2022-09-14T03:20:31.672Z,86.40
2022-09-14T03:23:00.746Z,86.37
2022-09-14T03:25:29.344Z,86.38
2022-09-14T03:27:59.816Z,86.37
2022-09-14T03:30:29.373Z,86.40
2022-09-14T03:32:59.212Z,86.43
2022-09-14T03:35:31.444Z,86.42
2022-09-14T03:38:00.129Z,86.41
2022-09-14T03:40:27.942Z,86.37
2022-09-14T03:42:57.424Z,86.35
2022-09-14T03:45:25.291Z,86.33
2022-09-14T03:47:52.976Z,86.26
2022-09-14T03:50:20.692Z,86.18
2022-09-14T03:52:48.483Z,86.10
2022-09-14T03:55:16.483Z,86.04
2022-09-14T03:57:44.168Z,85.96
2022-09-14T04:00:12.344Z,85.93
2022-09-14T04:02:41.006Z,85.91
2022-09-14T04:05:10.061Z,85.87
2022-09-14T04:07:37.890Z,85.83
2022-09-14T04:10:07.225Z,85.84
2022-09-14T04:12:38.709Z,85.85
2022-09-14T04:15:07.956Z,85.85
2022-09-14T04:17:36.075Z,85.88
2022-09-14T04:20:04.454Z,85.87
2022-09-14T04:22:33.831Z,85.83
2022-09-14T04:25:01.827Z,85.78
2022-09-14T04:27:30.996Z,85.73
2022-09-14T04:29:58.739Z,85.71
2022-09-14T04:32:28.742Z,85.71
2022-09-14T04:34:58.928Z,85.73
2022-09-14T04:37:26.586Z,85.71
2022-09-14T04:39:54.439Z,85.71
2022-09-14T04:42:22.146Z,85.70
2022-09-14T04:44:49.945Z,85.66
2022-09-14T04:47:17.853Z,85.67
2022-09-14T04:49:45.709Z,85.73
2022-09-14T04:52:13.451Z,85.85
2022-09-14T04:54:41.527Z,85.84
2022-09-14T04:57:09.274Z,85.81
2022-09-14T04:59:36.969Z,85.81
2022-09-14T05:02:05.076Z,85.78
2022-09-14T05:04:32.878Z,85.80
2022-09-14T05:07:00.586Z,85.77
2022-09-14T05:09:28.618Z,85.74
2022-09-14T05:11:56.591Z,85.63
2022-09-14T05:14:24.460Z,85.56
2022-09-14T05:16:52.205Z,85.46
2022-09-14T05:19:19.933Z,85.43
2022-09-14T05:21:47.773Z,85.33
2022-09-14T05:24:19.184Z,85.32
2022-09-14T05:26:47.763Z,85.32
2022-09-14T05:29:18.229Z,85.32
2022-09-14T05:31:46.662Z,85.31
2022-09-14T05:34:16.575Z,85.29
2022-09-14T05:36:44.359Z,85.26
2022-09-14T05:39:12.317Z,85.19
2022-09-14T05:41:40.117Z,85.14
2022-09-14T05:44:07.872Z,85.15
2022-09-14T05:46:35.788Z,85.10
2022-09-14T05:49:04.345Z,85.16
2022-09-14T05:51:32.636Z,85.16
2022-09-14T05:54:01.120Z,85.18
2022-09-14T05:56:31.897Z,85.17
2022-09-14T05:59:00.457Z,85.26
2022-09-14T06:01:32.862Z,85.23
2022-09-14T06:04:02.483Z,85.16
2022-09-14T06:06:31.994Z,85.07
2022-09-14T06:09:00.292Z,84.95
2022-09-14T06:11:33.073Z,84.85
2022-09-14T06:14:01.212Z,84.80
2022-09-14T06:16:29.873Z,84.81
2022-09-14T06:18:59.355Z,84.80
2022-09-14T06:21:31.179Z,84.60
2022-09-14T06:23:59.471Z,84.29
2022-09-14T06:26:27.201Z,84.11
2022-09-14T06:28:54.970Z,83.96
2022-09-14T06:31:22.804Z,83.59
2022-09-14T06:33:51.861Z,83.51
2022-09-14T06:36:24.964Z,83.38
2022-09-14T06:38:54.396Z,83.24
2022-09-14T06:41:30.591Z,83.14
2022-09-14T06:44:01.766Z,82.81
2022-09-14T06:46:32.910Z,82.03
2022-09-14T06:49:08.200Z,81.70
2022-09-14T06:51:45.542Z,81.60
2022-09-14T06:54:15.604Z,81.34
2022-09-14T06:56:45.008Z,80.92
2022-09-14T06:59:15.730Z,80.86
2022-09-14T07:01:45.651Z,80.54
2022-09-14T07:04:14.668Z,80.38
2022-09-14T07:06:48.740Z,79.86
2022-09-14T07:09:19.388Z,79.58
2022-09-14T07:11:47.709Z,79.30
2022-09-14T07:14:15.414Z,79.29
2022-09-14T07:16:43.082Z,78.70
2022-09-14T07:19:14.222Z,78.50
2022-09-14T07:21:44.061Z,78.15
2022-09-14T07:24:15.174Z,77.49
2022-09-14T07:26:43.659Z,77.12
2022-09-14T07:29:15.890Z,76.86
2022-09-14T07:31:52.680Z,77.21
2022-09-14T07:34:20.855Z,76.99
2022-09-14T07:36:48.683Z,76.87
2022-09-14T07:39:18.154Z,76.33
2022-09-14T07:41:46.165Z,75.68
2022-09-14T07:44:17.128Z,75.21
2022-09-14T07:46:47.002Z,75.04
2022-09-14T07:49:18.379Z,74.79
2022-09-14T07:51:46.225Z,74.17
2022-09-14T07:54:16.679Z,73.13
2022-09-14T07:56:45.988Z,73.06
2022-09-14T07:59:34.990Z,73.35
2022-09-14T08:02:04.804Z,73.13
2022-09-14T08:04:34.935Z,72.91
2022-09-14T08:07:03.205Z,71.98
2022-09-14T08:09:31.249Z,71.54
2022-09-14T08:11:59.018Z,71.76
2022-09-14T08:14:29.506Z,69.95
2022-09-14T08:16:57.545Z,68.65
2022-09-14T08:19:26.568Z,67.98
2022-09-14T08:21:54.641Z,67.13
2022-09-14T08:24:22.566Z,67.04
2022-09-14T08:26:50.692Z,67.02
2022-09-14T08:29:19.568Z,66.43
2022-09-14T08:31:48.830Z,66.39
2022-09-14T08:34:17.421Z,64.64
2022-09-14T08:36:49.646Z,63.72
2022-09-14T08:39:18.186Z,63.90
2022-09-14T08:41:46.170Z,63.90
2022-09-14T08:44:38.225Z,63.46
2022-09-14T08:47:32.300Z,62.60
2022-09-14T08:50:13.334Z,62.57
2022-09-14T08:52:47.270Z,61.97
2022-09-14T08:55:37.804Z,60.85
2022-09-14T08:58:10.900Z,59.73
2022-09-14T09:01:03.290Z,58.47
2022-09-14T09:04:15.414Z,57.13
2022-09-14T09:07:04.864Z,55.85
2022-09-14T09:09:52.404Z,55.20
2022-09-14T09:12:31.295Z,53.94
2022-09-14T09:15:01.586Z,52.31
2022-09-14T09:17:38.934Z,51.87
2022-09-14T09:20:13.975Z,50.96
2022-09-14T09:22:50.724Z,50.09
2022-09-14T09:25:25.351Z,49.43
2022-09-14T09:28:10.534Z,48.32
2022-09-14T09:30:41.547Z,48.24
2022-09-14T09:33:21.546Z,47.07
2022-09-14T09:35:51.502Z,45.73
2022-09-14T09:38:27.593Z,45.49
2022-09-14T09:41:02.195Z,46.11
2022-09-14T09:43:48.349Z,46.14
2022-09-14T09:46:17.904Z,46.33
2022-09-14T09:48:46.341Z,45.71
2022-09-14T09:51:24.303Z,45.88
2022-09-14T09:54:14.158Z,45.84
2022-09-14T09:56:59.077Z,45.34
2022-09-14T09:59:41.928Z,45.24
2022-09-14T10:02:28.191Z,44.76
2022-09-14T10:05:09.792Z,44.94
2022-09-14T10:08:09.363Z,45.59
2022-09-14T10:10:43.171Z,46.09
2022-09-14T10:13:32.023Z,46.66
2022-09-14T10:16:18.410Z,47.45
2022-09-14T10:18:52.586Z,46.86
2022-09-14T10:21:24.208Z,46.17
2022-09-14T10:24:20.640Z,46.54
2022-09-14T10:26:48.678Z,46.87
2022-09-14T10:29:56.124Z,46.57
2022-09-14T10:32:25.619Z,46.20
2022-09-14T10:34:53.541Z,45.68
2022-09-14T10:37:37.966Z,45.46
2022-09-14T10:40:17.484Z,45.36
2022-09-14T10:43:14.478Z,45.65
2022-09-14T10:45:53.014Z,45.49
2022-09-14T10:48:54.814Z,46.09
2022-09-14T10:51:58.435Z,46.52
2022-09-14T10:55:01.519Z,47.11
2022-09-14T10:58:10.795Z,47.57
2022-09-14T11:01:11.668Z,48.38
2022-09-14T11:03:56.809Z,48.78
2022-09-14T11:07:12.628Z,48.59
2022-09-14T11:10:06.573Z,48.40
2022-09-14T11:12:39.369Z,49.17
2022-09-14T11:15:35.093Z,48.97
2022-09-14T11:18:39.287Z,48.85
2022-09-14T11:21:20.703Z,48.82
2022-09-14T11:23:57.280Z,48.74
2022-09-14T11:26:42.044Z,48.93
2022-09-14T11:29:14.720Z,48.61
2022-09-14T11:32:27.925Z,48.37
2022-09-14T11:35:38.911Z,47.53
2022-09-14T11:38:23.248Z,47.25
2022-09-14T11:41:00.544Z,46.92
2022-09-14T11:43:55.243Z,47.10
2022-09-14T11:46:37.442Z,47.48
2022-09-14T11:49:14.212Z,47.02
2022-09-14T11:52:14.197Z,47.21
2022-09-14T11:54:46.846Z,46.96
2022-09-14T11:57:33.850Z,47.34
2022-09-14T12:01:22.059Z,48.13
2022-09-14T12:04:00.860Z,48.54
2022-09-14T12:06:30.739Z,48.20
2022-09-14T12:09:36.939Z,48.39
2022-09-14T12:12:07.819Z,48.68
2022-09-14T12:14:36.223Z,49.14
2022-09-14T12:17:39.826Z,49.30
2022-09-14T12:20:42.292Z,48.94
2022-09-14T12:23:27.611Z,49.19
2022-09-14T12:26:06.595Z,49.87
2022-09-14T12:28:35.098Z,50.34
2022-09-14T12:31:04.710Z,50.04
2022-09-14T12:33:31.602Z,50.70
2022-09-14T12:36:26.154Z,50.99
2022-09-14T12:38:52.950Z,51.41
2022-09-14T12:41:22.227Z,51.69
2022-09-14T12:43:48.738Z,51.90
2022-09-14T12:46:21.288Z,52.34
2022-09-14T12:48:47.779Z,53.10
2022-09-14T12:51:26.409Z,53.40
2022-09-14T12:54:04.600Z,54.11
2022-09-14T12:56:40.572Z,53.41
2022-09-14T12:59:33.198Z,53.18
2022-09-14T13:02:33.142Z,53.43
2022-09-14T13:04:59.750Z,53.56
2022-09-14T13:07:33.773Z,53.71
2022-09-14T13:10:01.851Z,53.70
2022-09-14T13:12:33.348Z,54.11
2022-09-14T13:15:23.107Z,53.95
2022-09-14T13:18:26.388Z,54.31
2022-09-14T13:20:57.063Z,54.73
2022-09-14T13:23:47.164Z,55.12
2022-09-14T13:26:26.714Z,55.38
2022-09-14T13:28:55.253Z,55.33
2022-09-14T13:31:35.442Z,55.36
2022-09-14T13:34:05.144Z,55.32
2022-09-14T13:36:35.756Z,55.14
2022-09-14T13:39:03.014Z,55.59
2022-09-14T13:41:30.252Z,56.04
2022-09-14T13:43:57.714Z,55.69
2022-09-14T13:46:26.086Z,55.74
2022-09-14T13:48:53.149Z,55.46
2022-09-14T13:51:26.917Z,55.62
2022-09-14T13:53:57.070Z,56.13
2022-09-14T13:56:32.258Z,56.27
2022-09-14T13:59:18.234Z,56.51
2022-09-14T14:01:56.534Z,56.10
2022-09-14T14:04:36.492Z,56.30
2022-09-14T14:07:32.416Z,56.55
2022-09-14T14:10:00.125Z,56.95
2022-09-14T14:12:38.884Z,57.23
2022-09-14T14:15:11.825Z,57.15
2022-09-14T14:17:58.803Z,57.60
2022-09-14T14:20:31.965Z,57.65
2022-09-14T14:23:09.861Z,57.75
2022-09-14T14:25:46.948Z,58.10
2022-09-14T14:28:22.780Z,58.01
2022-09-14T14:30:50.262Z,58.25
2022-09-14T14:33:18.849Z,58.28
2022-09-14T14:35:54.158Z,58.36
2022-09-14T14:38:24.457Z,58.77
2022-09-14T14:40:54.522Z,58.79
2022-09-14T14:43:26.847Z,58.87
2022-09-14T14:45:59.841Z,58.83
2022-09-14T14:48:27.583Z,59.21
2022-09-14T14:50:54.964Z,59.54
2022-09-14T14:53:23.604Z,59.65
2022-09-14T14:55:50.292Z,59.70
2022-09-14T14:58:19.745Z,59.83
2022-09-14T15:00:47.318Z,59.99
2022-09-14T15:03:18.677Z,60.00
2022-09-14T15:05:46.645Z,60.11
2022-09-14T15:08:16.418Z,60.52
2022-09-14T15:10:43.098Z,60.57
2022-09-14T15:13:13.028Z,60.45
2022-09-14T15:15:42.218Z,60.56
2022-09-14T15:18:09.046Z,60.70
2022-09-14T15:20:37.294Z,60.64
2022-09-14T15:23:07.495Z,60.67
2022-09-14T15:25:41.602Z,60.69
2022-09-14T15:28:09.599Z,60.55
2022-09-14T15:30:37.929Z,60.64
2022-09-14T15:33:05.843Z,60.85
2022-09-14T15:35:32.439Z,61.13
2022-09-14T15:37:58.864Z,61.40
2022-09-14T15:40:37.708Z,61.54
2022-09-14T15:43:20.562Z,61.70
2022-09-14T15:45:51.465Z,61.88
2022-09-14T15:48:46.722Z,61.99
2022-09-14T15:51:40.791Z,61.95
2022-09-14T15:54:52.588Z,61.98
2022-09-14T16:06:15.076Z,62.85
2022-09-14T16:08:39.132Z,63.04
2022-09-14T16:10:49.662Z,62.32
2022-09-14T16:11:33.502Z,62.92
2022-09-14T16:14:35.433Z,62.98
2022-09-14T16:17:12.708Z,63.02
2022-09-14T16:19:44.797Z,63.16
2022-09-14T16:22:29.015Z,63.23
2022-09-14T16:28:32.603Z,63.39
2022-09-14T16:31:53.389Z,63.03
2022-09-14T16:39:45.707Z,62.87
2022-09-14T16:48:52.689Z,63.28
2022-09-14T16:51:38.289Z,63.29
2022-09-14T16:54:40.514Z,63.34
2022-09-14T17:01:11.681Z,63.50
2022-09-14T17:03:53.901Z,63.54
2022-09-14T17:07:50.451Z,63.48
2022-09-14T17:11:27.170Z,63.71
2022-09-14T17:15:00.329Z,63.75
2022-09-14T17:18:42.081Z,63.86
2022-09-14T17:30:44.553Z,64.81
2022-09-14T17:34:07.374Z,64.95
2022-09-14T17:56:16.411Z,65.28
2022-09-14T17:59:46.273Z,65.25
2022-09-14T18:03:29.665Z,65.55
2022-09-14T18:33:49.832Z,69.25
2022-09-14T18:36:15.539Z,69.20
2022-09-14T18:38:51.302Z,69.12
2022-09-14T18:41:22.749Z,69.06
2022-09-14T18:44:14.772Z,69.18
2022-09-14T18:57:18.748Z,69.57
2022-09-14T19:03:18.414Z,70.05
2022-09-14T19:06:23.056Z,70.16
2022-09-14T19:08:59.135Z,70.26
2022-09-14T19:11:37.237Z,70.15
2022-09-14T19:14:17.239Z,70.00
2022-09-14T19:17:18.008Z,69.98
2022-09-14T19:19:56.046Z,70.26
2022-09-14T19:23:03.781Z,70.50
2022-09-14T19:26:06.768Z,70.68
2022-09-14T19:29:36.925Z,71.02
2022-09-14T19:35:23.970Z,71.05
2022-09-14T19:38:30.810Z,71.71
2022-09-14T19:41:12.914Z,72.03
2022-09-14T19:44:03.710Z,72.35
2022-09-14T19:57:20.625Z,73.18
2022-09-14T19:59:48.885Z,73.59
2022-09-14T20:02:24.538Z,73.99
2022-09-14T20:04:59.401Z,74.19
2022-09-14T20:07:26.198Z,74.39
2022-09-14T20:09:52.829Z,74.62
2022-09-14T20:12:19.378Z,74.79
2022-09-14T20:14:46.010Z,74.82
2022-09-14T20:17:12.850Z,74.87
2022-09-14T20:19:39.394Z,74.84
2022-09-14T20:22:05.931Z,74.85
2022-09-14T20:24:32.396Z,74.87
2022-09-14T20:27:00.291Z,74.72
2022-09-14T20:29:30.026Z,74.78
2022-09-14T20:31:57.853Z,74.85
2022-09-14T20:34:26.721Z,74.75
2022-09-14T20:36:54.052Z,74.68
2022-09-14T20:39:24.093Z,74.83
2022-09-14T20:41:51.034Z,74.82
2022-09-14T20:44:21.729Z,75.09
2022-09-14T20:46:49.833Z,75.25
2022-09-14T20:49:20.173Z,75.27
2022-09-14T20:51:46.846Z,75.24
2022-09-14T20:54:16.750Z,75.31
2022-09-14T20:56:44.187Z,75.41
2022-09-14T20:59:14.512Z,75.54
2022-09-14T21:01:43.405Z,75.64
2022-09-14T21:04:16.931Z,75.72
2022-09-14T21:06:47.202Z,75.83
2022-09-14T21:09:15.577Z,75.95
2022-09-14T21:11:45.156Z,76.08
2022-09-14T21:14:14.296Z,76.17
2022-09-14T21:16:43.812Z,76.26
2022-09-14T21:19:16.776Z,76.00
2022-09-14T21:21:45.888Z,75.31
2022-09-14T21:24:14.161Z,74.54
2022-09-14T21:26:42.892Z,74.15
2022-09-14T21:29:20.325Z,73.97
2022-09-14T21:31:48.298Z,73.84
2022-09-14T21:34:15.619Z,73.75
2022-09-14T21:36:45.709Z,73.62
2022-09-14T21:39:16.643Z,73.39
2022-09-14T21:41:44.354Z,73.25
2022-09-14T21:44:12.560Z,73.27
2022-09-14T21:46:39.420Z,73.61
2022-09-14T21:49:05.868Z,73.92
2022-09-14T21:51:35.409Z,73.97
2022-09-14T21:54:05.583Z,74.00
2022-09-14T21:56:36.341Z,74.01
2022-09-14T21:59:07.797Z,73.89
2022-09-14T22:01:34.534Z,73.84
2022-09-14T22:04:02.390Z,73.82
2022-09-14T22:06:31.897Z,73.92
2022-09-14T22:09:00.541Z,73.98
2022-09-14T22:11:33.514Z,74.52
2022-09-14T22:14:07.119Z,75.11
2022-09-14T22:16:36.338Z,75.30
2022-09-14T22:19:11.326Z,75.43
2022-09-14T22:21:38.508Z,75.56
2022-09-14T22:24:10.166Z,75.64
2022-09-14T22:26:39.076Z,75.58
2022-09-14T22:29:08.345Z,75.63
2022-09-14T22:31:37.757Z,75.79
2022-09-14T22:34:07.164Z,76.04
2022-09-14T22:36:34.972Z,75.95
2022-09-14T22:39:02.837Z,75.76
2022-09-14T22:41:29.733Z,75.58
2022-09-14T22:43:56.430Z,75.30
2022-09-14T22:46:23.895Z,75.05
2022-09-14T22:48:51.675Z,74.86
2022-09-14T22:51:25.505Z,75.00
2022-09-14T22:53:52.607Z,74.98
2022-09-14T22:56:27.114Z,75.32
2022-09-14T22:58:54.228Z,75.73
2022-09-14T23:01:27.906Z,76.03
2022-09-14T23:04:03.334Z,76.23
2022-09-14T23:06:37.380Z,76.47
2022-09-14T23:09:23.219Z,76.77
2022-09-14T23:11:51.179Z,76.95
2022-09-14T23:14:19.074Z,76.99
2022-09-14T23:16:46.995Z,76.83
2022-09-14T23:19:18.269Z,76.74
2022-09-14T23:21:46.510Z,76.74
2022-09-14T23:24:14.629Z,76.78
2022-09-14T23:26:42.551Z,76.80
2022-09-14T23:29:16.728Z,76.81
2022-09-14T23:31:44.949Z,76.77
2022-09-14T23:34:13.498Z,76.78
2022-09-14T23:36:41.495Z,76.70
2022-09-14T23:39:09.381Z,76.70
2022-09-14T23:41:37.958Z,76.69
2022-09-14T23:44:05.716Z,76.67
2022-09-14T23:46:33.616Z,76.74
2022-09-14T23:49:01.368Z,76.88
2022-09-14T23:51:29.100Z,77.01
2022-09-14T23:53:56.861Z,77.25
2022-09-14T23:56:24.529Z,77.39
2022-09-14T23:58:52.430Z,77.55
